Current | Forecast
Updated: 11:00 AM JST on October 17, 2017
Observed at Niigata Airport, Japan
Temperature 63°F
Humidity 55%
Dew Point 46°F
Wind NNE at 6 mph
Pressure 30.21 in (Steady)
Conditions Partly Cloudy
Visibility 6.2 miles
UV 5 out of 16
Clouds (FEW) : 3000 ft
Yesterday's Maximum 59°F
Yesterday's Minimum 52°F approx.
Yesterday's Heating Degree Days 10 approx.
Sunrise5:56 AM JST
Sunset5:06 PM JST
Moon Rise2:57 AM JST
Moon Set3:59 PM JST
Moon PhaseMoon Phase
Waning Crescent
Raw METARMETAR RJSN 170200Z 03005KT 340V060 9999 FEW030 17/08 Q1023


Monday
. High: 75° F.
Tuesday
. High: 71° F.
Wednesday
. High: 62° F.
Thursday
. High: 66° F.
Friday
. High: 71° F.
Saturday
. High: 62° F.
Sunday
. High: 64° F.
Monday
. High: 60° F.

Units: English | Metric

Find the Weather for any City, State or Zipcode, or Country:

U.S. State List | Severe Weather | Tropical Storms | Ski Conditions
United States | Canada | Central America | South America | Asia | Europe | Australia | Africa | Islands

Weather Underground

© Copyright 2017
The Weather Company, LLC